sensor_id;sensor_type;location;lat;lon;timestamp;temperature;humidity
11961;DHT22;6040;49.358;11.140;2023-06-22T00:00:00;18.20;99.90
11961;DHT22;6040;49.358;11.140;2023-06-22T00:02:28;18.10;99.90
11961;DHT22;6040;49.358;11.140;2023-06-22T00:04:55;18.20;99.90
11961;DHT22;6040;49.358;11.140;2023-06-22T00:07:21;18.10;99.90
11961;DHT22;6040;49.358;11.140;2023-06-22T00:09:49;18.10;99.90
11961;DHT22;6040;49.358;11.140;2023-06-22T00:12:16;18.10;99.90
11961;DHT22;6040;49.358;11.140;2023-06-22T00:14:43;18.00;99.90
11961;DHT22;6040;49.358;11.140;2023-06-22T00:17:09;18.10;99.90
11961;DHT22;6040;49.358;11.140;2023-06-22T00:19:37;18.10;99.90
11961;DHT22;6040;49.358;11.140;2023-06-22T00:22:06;18.10;99.90
11961;DHT22;6040;49.358;11.140;2023-06-22T00:24:32;18.00;99.90
11961;DHT22;6040;49.358;11.140;2023-06-22T00:26:59;18.10;99.90
11961;DHT22;6040;49.358;11.140;2023-06-22T00:29:26;18.00;99.90
11961;DHT22;6040;49.358;11.140;2023-06-22T00:31:53;18.00;99.90
11961;DHT22;6040;49.358;11.140;2023-06-22T00:34:19;18.00;99.90
11961;DHT22;6040;49.358;11.140;2023-06-22T00:36:48;17.90;99.90
11961;DHT22;6040;49.358;11.140;2023-06-22T00:39:17;18.00;99.90
11961;DHT22;6040;49.358;11.140;2023-06-22T00:41:43;17.90;99.90
11961;DHT22;6040;49.358;11.140;2023-06-22T00:44:10;17.90;99.90
11961;DHT22;6040;49.358;11.140;2023-06-22T00:46:37;17.90;99.90
11961;DHT22;6040;49.358;11.140;2023-06-22T00:49:04;18.00;99.90
11961;DHT22;6040;49.358;11.140;2023-06-22T00:51:31;17.90;99.90
11961;DHT22;6040;49.358;11.140;2023-06-22T00:54:00;18.00;99.90
11961;DHT22;6040;49.358;11.140;2023-06-22T00:56:27;18.00;99.90
11961;DHT22;6040;49.358;11.140;2023-06-22T00:58:55;18.00;99.90
11961;DHT22;6040;49.358;11.140;2023-06-22T01:01:23;17.90;99.90
11961;DHT22;6040;49.358;11.140;2023-06-22T01:03:50;17.90;99.90
11961;DHT22;6040;49.358;11.140;2023-06-22T01:06:21;17.80;99.90
11961;DHT22;6040;49.358;11.140;2023-06-22T01:08:57;17.80;99.90
11961;DHT22;6040;49.358;11.140;2023-06-22T01:11:36;17.70;99.90
11961;DHT22;6040;49.358;11.140;2023-06-22T01:14:09;17.70;99.90
11961;DHT22;6040;49.358;11.140;2023-06-22T01:16:41;17.70;99.90
11961;DHT22;6040;49.358;11.140;2023-06-22T01:19:20;17.70;99.90
11961;DHT22;6040;49.358;11.140;2023-06-22T01:21:51;17.60;99.90
11961;DHT22;6040;49.358;11.140;2023-06-22T01:24:27;17.50;99.90
11961;DHT22;6040;49.358;11.140;2023-06-22T01:27:07;17.70;99.90
11961;DHT22;6040;49.358;11.140;2023-06-22T01:29:38;17.60;99.90
11961;DHT22;6040;49.358;11.140;2023-06-22T01:32:06;17.40;99.90
11961;DHT22;6040;49.358;11.140;2023-06-22T01:34:33;17.50;99.90
11961;DHT22;6040;49.358;11.140;2023-06-22T01:37:01;17.40;99.90
11961;DHT22;6040;49.358;11.140;2023-06-22T01:39:29;17.40;99.90
11961;DHT22;6040;49.358;11.140;2023-06-22T01:41:57;17.40;99.90
11961;DHT22;6040;49.358;11.140;2023-06-22T01:44:25;17.20;99.90
11961;DHT22;6040;49.358;11.140;2023-06-22T01:46:53;17.20;99.90
11961;DHT22;6040;49.358;11.140;2023-06-22T01:49:21;17.30;99.90
11961;DHT22;6040;49.358;11.140;2023-06-22T01:51:48;17.30;99.90
11961;DHT22;6040;49.358;11.140;2023-06-22T01:54:15;17.20;99.90
11961;DHT22;6040;49.358;11.140;2023-06-22T01:56:42;19.10;99.90
11961;DHT22;6040;49.358;11.140;2023-06-22T01:59:13;17.20;99.90
11961;DHT22;6040;49.358;11.140;2023-06-22T02:01:44;17.10;99.90
11961;DHT22;6040;49.358;11.140;2023-06-22T02:04:20;17.10;99.90
11961;DHT22;6040;49.358;11.140;2023-06-22T02:06:50;17.10;99.90
11961;DHT22;6040;49.358;11.140;2023-06-22T02:09:20;17.00;99.90
11961;DHT22;6040;49.358;11.140;2023-06-22T02:11:47;17.00;99.90
11961;DHT22;6040;49.358;11.140;2023-06-22T02:14:18;17.00;99.90
11961;DHT22;6040;49.358;11.140;2023-06-22T02:16:46;16.90;99.90
11961;DHT22;6040;49.358;11.140;2023-06-22T02:19:14;17.00;99.90
11961;DHT22;6040;49.358;11.140;2023-06-22T02:21:43;16.90;99.90
11961;DHT22;6040;49.358;11.140;2023-06-22T02:24:10;16.90;99.90
11961;DHT22;6040;49.358;11.140;2023-06-22T02:26:38;16.90;99.90
11961;DHT22;6040;49.358;11.140;2023-06-22T02:29:05;16.80;99.90
11961;DHT22;6040;49.358;11.140;2023-06-22T02:31:32;16.80;99.90
11961;DHT22;6040;49.358;11.140;2023-06-22T02:33:59;16.80;99.90
11961;DHT22;6040;49.358;11.140;2023-06-22T02:36:27;16.90;99.90
11961;DHT22;6040;49.358;11.140;2023-06-22T02:38:56;16.80;99.90
11961;DHT22;6040;49.358;11.140;2023-06-22T02:41:26;16.90;99.90
11961;DHT22;6040;49.358;11.140;2023-06-22T02:43:53;16.80;99.90
11961;DHT22;6040;49.358;11.140;2023-06-22T02:46:20;16.80;99.90
11961;DHT22;6040;49.358;11.140;2023-06-22T02:48:46;16.80;99.90
11961;DHT22;6040;49.358;11.140;2023-06-22T02:51:13;16.80;99.90
11961;DHT22;6040;49.358;11.140;2023-06-22T02:53:41;19.10;99.90
11961;DHT22;6040;49.358;11.140;2023-06-22T02:56:10;16.90;99.90
11961;DHT22;6040;49.358;11.140;2023-06-22T02:58:38;17.00;99.90
11961;DHT22;6040;49.358;11.140;2023-06-22T03:01:05;17.00;99.90
11961;DHT22;6040;49.358;11.140;2023-06-22T03:03:32;17.10;99.90
11961;DHT22;6040;49.358;11.140;2023-06-22T03:05:58;17.10;99.90
11961;DHT22;6040;49.358;11.140;2023-06-22T03:08:27;17.10;99.90
11961;DHT22;6040;49.358;11.140;2023-06-22T03:10:55;17.10;99.90
11961;DHT22;6040;49.358;11.140;2023-06-22T03:13:22;17.10;99.90
11961;DHT22;6040;49.358;11.140;2023-06-22T03:15:49;17.10;99.90
11961;DHT22;6040;49.358;11.140;2023-06-22T03:18:16;17.10;99.90
11961;DHT22;6040;49.358;11.140;2023-06-22T03:20:42;17.10;99.90
11961;DHT22;6040;49.358;11.140;2023-06-22T03:23:09;17.10;99.90
11961;DHT22;6040;49.358;11.140;2023-06-22T03:25:36;17.10;99.90
11961;DHT22;6040;49.358;11.140;2023-06-22T03:28:04;17.10;99.90
11961;DHT22;6040;49.358;11.140;2023-06-22T03:30:31;17.00;99.90
11961;DHT22;6040;49.358;11.140;2023-06-22T03:32:58;17.20;99.90
11961;DHT22;6040;49.358;11.140;2023-06-22T03:35:25;17.20;99.90
11961;DHT22;6040;49.358;11.140;2023-06-22T03:37:51;17.30;99.90
11961;DHT22;6040;49.358;11.140;2023-06-22T03:40:18;17.40;99.90
11961;DHT22;6040;49.358;11.140;2023-06-22T03:42:45;17.40;99.90
11961;DHT22;6040;49.358;11.140;2023-06-22T03:45:14;17.40;99.90
11961;DHT22;6040;49.358;11.140;2023-06-22T03:47:41;17.50;99.90
11961;DHT22;6040;49.358;11.140;2023-06-22T03:50:08;17.50;99.90
11961;DHT22;6040;49.358;11.140;2023-06-22T03:52:35;17.60;99.90
11961;DHT22;6040;49.358;11.140;2023-06-22T03:55:02;17.70;99.90
11961;DHT22;6040;49.358;11.140;2023-06-22T03:57:29;17.60;99.90
11961;DHT22;6040;49.358;11.140;2023-06-22T03:59:56;17.60;99.90
11961;DHT22;6040;49.358;11.140;2023-06-22T04:02:25;17.70;99.90
11961;DHT22;6040;49.358;11.140;2023-06-22T04:04:52;17.70;99.90
11961;DHT22;6040;49.358;11.140;2023-06-22T04:07:19;17.60;99.90
11961;DHT22;6040;49.358;11.140;2023-06-22T04:09:45;17.60;99.90
11961;DHT22;6040;49.358;11.140;2023-06-22T04:12:12;17.70;99.90
11961;DHT22;6040;49.358;11.140;2023-06-22T04:14:39;17.60;99.90
11961;DHT22;6040;49.358;11.140;2023-06-22T04:17:06;17.60;99.90
11961;DHT22;6040;49.358;11.140;2023-06-22T04:19:34;17.60;99.90
11961;DHT22;6040;49.358;11.140;2023-06-22T04:22:01;17.70;99.90
11961;DHT22;6040;49.358;11.140;2023-06-22T04:24:28;17.70;99.90
11961;DHT22;6040;49.358;11.140;2023-06-22T04:26:54;17.70;99.90
11961;DHT22;6040;49.358;11.140;2023-06-22T04:29:21;17.70;99.90
11961;DHT22;6040;49.358;11.140;2023-06-22T04:31:54;17.80;99.90
11961;DHT22;6040;49.358;11.140;2023-06-22T04:34:23;17.80;99.90
11961;DHT22;6040;49.358;11.140;2023-06-22T04:36:53;17.90;99.90
11961;DHT22;6040;49.358;11.140;2023-06-22T04:39:20;17.90;99.90
11961;DHT22;6040;49.358;11.140;2023-06-22T04:41:47;17.70;99.90
11961;DHT22;6040;49.358;11.140;2023-06-22T04:44:16;17.80;99.90
11961;DHT22;6040;49.358;11.140;2023-06-22T04:46:49;17.90;99.90
11961;DHT22;6040;49.358;11.140;2023-06-22T04:49:20;17.90;99.90
11961;DHT22;6040;49.358;11.140;2023-06-22T04:51:48;18.40;99.90
11961;DHT22;6040;49.358;11.140;2023-06-22T04:54:18;18.20;99.90
11961;DHT22;6040;49.358;11.140;2023-06-22T04:56:45;18.30;99.90
11961;DHT22;6040;49.358;11.140;2023-06-22T04:59:12;18.20;99.90
11961;DHT22;6040;49.358;11.140;2023-06-22T05:01:39;18.40;99.90
11961;DHT22;6040;49.358;11.140;2023-06-22T05:04:06;18.50;99.90
11961;DHT22;6040;49.358;11.140;2023-06-22T05:06:33;18.40;99.90
11961;DHT22;6040;49.358;11.140;2023-06-22T05:09:00;18.60;99.90
11961;DHT22;6040;49.358;11.140;2023-06-22T05:11:30;18.80;99.90
11961;DHT22;6040;49.358;11.140;2023-06-22T05:13:56;19.00;99.90
11961;DHT22;6040;49.358;11.140;2023-06-22T05:16:24;19.10;99.90
11961;DHT22;6040;49.358;11.140;2023-06-22T05:18:52;19.20;99.90
11961;DHT22;6040;49.358;11.140;2023-06-22T05:21:22;19.40;99.90
11961;DHT22;6040;49.358;11.140;2023-06-22T05:23:49;19.80;99.90
11961;DHT22;6040;49.358;11.140;2023-06-22T05:26:16;19.90;99.90
11961;DHT22;6040;49.358;11.140;2023-06-22T05:28:45;20.00;99.90
11961;DHT22;6040;49.358;11.140;2023-06-22T05:31:13;20.00;99.90
11961;DHT22;6040;49.358;11.140;2023-06-22T05:33:40;20.30;99.90
11961;DHT22;6040;49.358;11.140;2023-06-22T05:36:07;20.50;99.90
11961;DHT22;6040;49.358;11.140;2023-06-22T05:38:34;20.90;99.90
11961;DHT22;6040;49.358;11.140;2023-06-22T05:41:01;21.20;99.90
11961;DHT22;6040;49.358;11.140;2023-06-22T05:43:28;21.30;99.90
11961;DHT22;6040;49.358;11.140;2023-06-22T05:45:56;21.60;99.90
11961;DHT22;6040;49.358;11.140;2023-06-22T05:48:23;22.20;99.90
11961;DHT22;6040;49.358;11.140;2023-06-22T05:50:49;22.90;99.90
11961;DHT22;6040;49.358;11.140;2023-06-22T05:53:16;23.50;99.90
11961;DHT22;6040;49.358;11.140;2023-06-22T05:55:43;23.60;99.90
11961;DHT22;6040;49.358;11.140;2023-06-22T05:58:10;24.00;99.90
11961;DHT22;6040;49.358;11.140;2023-06-22T06:00:38;24.30;99.90
11961;DHT22;6040;49.358;11.140;2023-06-22T06:03:07;24.40;99.90
11961;DHT22;6040;49.358;11.140;2023-06-22T06:05:34;24.60;99.90
11961;DHT22;6040;49.358;11.140;2023-06-22T06:08:03;24.80;99.90
11961;DHT22;6040;49.358;11.140;2023-06-22T06:10:31;25.10;99.90
11961;DHT22;6040;49.358;11.140;2023-06-22T06:12:58;25.30;99.90
11961;DHT22;6040;49.358;11.140;2023-06-22T06:15:27;25.60;99.90
11961;DHT22;6040;49.358;11.140;2023-06-22T06:17:54;25.70;99.90
11961;DHT22;6040;49.358;11.140;2023-06-22T06:20:24;26.00;99.90
11961;DHT22;6040;49.358;11.140;2023-06-22T06:22:51;26.10;99.90
11961;DHT22;6040;49.358;11.140;2023-06-22T06:25:18;26.10;99.90
11961;DHT22;6040;49.358;11.140;2023-06-22T06:27:48;26.10;99.90
11961;DHT22;6040;49.358;11.140;2023-06-22T06:30:15;26.50;99.90
11961;DHT22;6040;49.358;11.140;2023-06-22T06:32:43;26.60;99.90
11961;DHT22;6040;49.358;11.140;2023-06-22T06:35:11;26.80;99.90
11961;DHT22;6040;49.358;11.140;2023-06-22T06:37:41;26.70;99.90
11961;DHT22;6040;49.358;11.140;2023-06-22T06:40:10;26.90;99.90
11961;DHT22;6040;49.358;11.140;2023-06-22T06:42:37;27.00;99.90
11961;DHT22;6040;49.358;11.140;2023-06-22T06:45:07;27.10;99.90
11961;DHT22;6040;49.358;11.140;2023-06-22T06:47:34;27.10;99.90
11961;DHT22;6040;49.358;11.140;2023-06-22T06:50:02;27.20;99.90
11961;DHT22;6040;49.358;11.140;2023-06-22T06:52:29;27.40;99.90
11961;DHT22;6040;49.358;11.140;2023-06-22T06:54:57;27.60;99.90
11961;DHT22;6040;49.358;11.140;2023-06-22T06:57:24;27.90;99.90
11961;DHT22;6040;49.358;11.140;2023-06-22T06:59:54;28.30;99.90
11961;DHT22;6040;49.358;11.140;2023-06-22T07:02:22;28.70;99.90
11961;DHT22;6040;49.358;11.140;2023-06-22T07:04:49;29.00;99.90
11961;DHT22;6040;49.358;11.140;2023-06-22T07:07:16;29.40;99.40
11961;DHT22;6040;49.358;11.140;2023-06-22T07:09:43;29.40;98.00
11961;DHT22;6040;49.358;11.140;2023-06-22T07:12:11;29.40;98.00
11961;DHT22;6040;49.358;11.140;2023-06-22T07:14:38;29.60;98.00
11961;DHT22;6040;49.358;11.140;2023-06-22T07:17:05;29.70;98.20
11961;DHT22;6040;49.358;11.140;2023-06-22T07:19:33;30.00;97.40
11961;DHT22;6040;49.358;11.140;2023-06-22T07:21:59;30.40;98.40
11961;DHT22;6040;49.358;11.140;2023-06-22T07:24:26;30.60;96.60
11961;DHT22;6040;49.358;11.140;2023-06-22T07:26:53;30.50;96.40
11961;DHT22;6040;49.358;11.140;2023-06-22T07:29:21;30.70;95.80
11961;DHT22;6040;49.358;11.140;2023-06-22T07:31:50;30.80;95.20
11961;DHT22;6040;49.358;11.140;2023-06-22T07:34:17;30.50;94.90
11961;DHT22;6040;49.358;11.140;2023-06-22T07:36:45;30.30;95.40
11961;DHT22;6040;49.358;11.140;2023-06-22T07:39:12;30.20;95.80
11961;DHT22;6040;49.358;11.140;2023-06-22T07:41:39;30.20;94.70
11961;DHT22;6040;49.358;11.140;2023-06-22T07:44:06;30.30;95.40
11961;DHT22;6040;49.358;11.140;2023-06-22T07:46:34;30.40;93.80
11961;DHT22;6040;49.358;11.140;2023-06-22T07:49:02;30.10;94.40
11961;DHT22;6040;49.358;11.140;2023-06-22T07:51:29;30.10;94.00
11961;DHT22;6040;49.358;11.140;2023-06-22T07:53:56;30.10;94.70
11961;DHT22;6040;49.358;11.140;2023-06-22T07:56:22;30.20;94.20
11961;DHT22;6040;49.358;11.140;2023-06-22T07:58:49;30.20;92.70
11961;DHT22;6040;49.358;11.140;2023-06-22T08:01:16;30.20;94.00
11961;DHT22;6040;49.358;11.140;2023-06-22T08:03:47;30.50;93.90
11961;DHT22;6040;49.358;11.140;2023-06-22T08:06:14;30.70;93.10
11961;DHT22;6040;49.358;11.140;2023-06-22T08:08:41;31.10;92.90
11961;DHT22;6040;49.358;11.140;2023-06-22T08:11:09;31.10;92.90
11961;DHT22;6040;49.358;11.140;2023-06-22T08:13:36;31.30;93.00
11961;DHT22;6040;49.358;11.140;2023-06-22T08:16:03;31.40;92.50
11961;DHT22;6040;49.358;11.140;2023-06-22T08:18:30;31.60;92.00
11961;DHT22;6040;49.358;11.140;2023-06-22T08:20:58;31.70;92.60
11961;DHT22;6040;49.358;11.140;2023-06-22T08:23:25;32.00;92.40
11961;DHT22;6040;49.358;11.140;2023-06-22T08:25:52;32.20;92.10
11961;DHT22;6040;49.358;11.140;2023-06-22T08:28:18;32.30;91.50
11961;DHT22;6040;49.358;11.140;2023-06-22T08:30:45;32.10;90.60
11961;DHT22;6040;49.358;11.140;2023-06-22T08:33:12;32.50;91.10
11961;DHT22;6040;49.358;11.140;2023-06-22T08:35:39;33.00;91.40
11961;DHT22;6040;49.358;11.140;2023-06-22T08:38:07;32.70;90.50
11961;DHT22;6040;49.358;11.140;2023-06-22T08:40:34;32.60;90.00
11961;DHT22;6040;49.358;11.140;2023-06-22T08:43:01;32.50;89.80
11961;DHT22;6040;49.358;11.140;2023-06-22T08:45:28;32.60;88.30
11961;DHT22;6040;49.358;11.140;2023-06-22T08:47:54;32.40;90.00
11961;DHT22;6040;49.358;11.140;2023-06-22T08:50:21;32.60;89.60
11961;DHT22;6040;49.358;11.140;2023-06-22T08:52:48;32.60;90.00
11961;DHT22;6040;49.358;11.140;2023-06-22T08:55:17;32.80;86.10
11961;DHT22;6040;49.358;11.140;2023-06-22T08:57:43;32.40;87.40
11961;DHT22;6040;49.358;11.140;2023-06-22T09:00:11;32.40;90.00
11961;DHT22;6040;49.358;11.140;2023-06-22T09:02:41;32.30;87.80
11961;DHT22;6040;49.358;11.140;2023-06-22T09:05:09;32.40;89.30
11961;DHT22;6040;49.358;11.140;2023-06-22T09:07:36;32.60;87.30
11961;DHT22;6040;49.358;11.140;2023-06-22T09:10:03;32.80;87.90
11961;DHT22;6040;49.358;11.140;2023-06-22T09:12:32;32.60;85.60
11961;DHT22;6040;49.358;11.140;2023-06-22T09:15:00;32.10;86.30
11961;DHT22;6040;49.358;11.140;2023-06-22T09:17:28;32.70;85.10
11961;DHT22;6040;49.358;11.140;2023-06-22T09:19:55;32.60;86.10
11961;DHT22;6040;49.358;11.140;2023-06-22T09:22:22;32.90;85.90
11961;DHT22;6040;49.358;11.140;2023-06-22T09:24:49;33.10;83.00
11961;DHT22;6040;49.358;11.140;2023-06-22T09:27:15;32.80;83.40
11961;DHT22;6040;49.358;11.140;2023-06-22T09:29:44;32.60;82.10
11961;DHT22;6040;49.358;11.140;2023-06-22T09:32:10;32.20;84.10
11961;DHT22;6040;49.358;11.140;2023-06-22T09:34:37;32.40;84.50
11961;DHT22;6040;49.358;11.140;2023-06-22T09:37:05;32.70;84.20
11961;DHT22;6040;49.358;11.140;2023-06-22T09:39:31;32.80;84.60
11961;DHT22;6040;49.358;11.140;2023-06-22T09:41:59;32.90;84.60
11961;DHT22;6040;49.358;11.140;2023-06-22T09:44:26;33.00;83.30
11961;DHT22;6040;49.358;11.140;2023-06-22T09:46:54;33.10;81.70
11961;DHT22;6040;49.358;11.140;2023-06-22T09:49:21;32.90;84.20
11961;DHT22;6040;49.358;11.140;2023-06-22T09:51:47;32.60;83.20
11961;DHT22;6040;49.358;11.140;2023-06-22T09:54:16;32.50;82.70
11961;DHT22;6040;49.358;11.140;2023-06-22T09:56:43;32.30;83.30
11961;DHT22;6040;49.358;11.140;2023-06-22T09:59:10;32.20;84.50
11961;DHT22;6040;49.358;11.140;2023-06-22T10:01:37;32.20;82.30
11961;DHT22;6040;49.358;11.140;2023-06-22T10:04:05;32.20;82.20
11961;DHT22;6040;49.358;11.140;2023-06-22T10:06:32;32.00;83.80
11961;DHT22;6040;49.358;11.140;2023-06-22T10:08:58;32.00;84.40
11961;DHT22;6040;49.358;11.140;2023-06-22T10:11:25;32.30;83.10
11961;DHT22;6040;49.358;11.140;2023-06-22T10:13:55;32.10;82.90
11961;DHT22;6040;49.358;11.140;2023-06-22T10:16:24;32.20;83.30
11961;DHT22;6040;49.358;11.140;2023-06-22T10:18:52;32.20;84.00
11961;DHT22;6040;49.358;11.140;2023-06-22T10:21:20;32.20;82.20
11961;DHT22;6040;49.358;11.140;2023-06-22T10:23:47;32.40;83.10
11961;DHT22;6040;49.358;11.140;2023-06-22T10:26:14;32.50;82.20
11961;DHT22;6040;49.358;11.140;2023-06-22T10:28:41;32.40;83.10
11961;DHT22;6040;49.358;11.140;2023-06-22T10:31:07;32.50;82.20
11961;DHT22;6040;49.358;11.140;2023-06-22T10:33:34;32.60;83.50
11961;DHT22;6040;49.358;11.140;2023-06-22T10:36:01;31.10;81.10
11961;DHT22;6040;49.358;11.140;2023-06-22T10:38:29;33.00;81.30
11961;DHT22;6040;49.358;11.140;2023-06-22T10:40:56;33.00;79.60
11961;DHT22;6040;49.358;11.140;2023-06-22T10:43:23;33.10;81.70
11961;DHT22;6040;49.358;11.140;2023-06-22T10:45:49;33.00;81.20
11961;DHT22;6040;49.358;11.140;2023-06-22T10:48:16;33.40;80.20
11961;DHT22;6040;49.358;11.140;2023-06-22T10:50:43;33.10;79.70
11961;DHT22;6040;49.358;11.140;2023-06-22T10:53:10;33.40;82.00
11961;DHT22;6040;49.358;11.140;2023-06-22T10:55:38;33.80;82.20
11961;DHT22;6040;49.358;11.140;2023-06-22T10:58:05;33.80;78.90
11961;DHT22;6040;49.358;11.140;2023-06-22T11:00:31;34.10;79.30
11961;DHT22;6040;49.358;11.140;2023-06-22T11:02:58;34.10;77.70
11961;DHT22;6040;49.358;11.140;2023-06-22T11:05:25;34.10;78.60
11961;DHT22;6040;49.358;11.140;2023-06-22T11:07:52;34.50;78.70
11961;DHT22;6040;49.358;11.140;2023-06-22T11:10:19;34.70;76.30
11961;DHT22;6040;49.358;11.140;2023-06-22T11:12:47;34.80;76.70
11961;DHT22;6040;49.358;11.140;2023-06-22T11:15:14;35.00;76.90
11961;DHT22;6040;49.358;11.140;2023-06-22T11:17:41;35.10;75.80
11961;DHT22;6040;49.358;11.140;2023-06-22T11:20:08;35.30;76.40
11961;DHT22;6040;49.358;11.140;2023-06-22T11:22:37;35.40;75.00
11961;DHT22;6040;49.358;11.140;2023-06-22T11:25:05;35.30;72.50
11961;DHT22;6040;49.358;11.140;2023-06-22T11:27:32;34.90;73.50
11961;DHT22;6040;49.358;11.140;2023-06-22T11:30:00;34.70;76.10
11961;DHT22;6040;49.358;11.140;2023-06-22T11:32:27;34.90;76.40
11961;DHT22;6040;49.358;11.140;2023-06-22T11:34:54;34.70;73.40
11961;DHT22;6040;49.358;11.140;2023-06-22T11:37:21;34.90;75.30
11961;DHT22;6040;49.358;11.140;2023-06-22T11:39:48;35.20;76.60
11961;DHT22;6040;49.358;11.140;2023-06-22T11:42:15;35.40;74.90
11961;DHT22;6040;49.358;11.140;2023-06-22T11:44:42;35.60;74.60
11961;DHT22;6040;49.358;11.140;2023-06-22T11:47:10;35.60;72.60
11961;DHT22;6040;49.358;11.140;2023-06-22T11:49:37;35.50;71.80
11961;DHT22;6040;49.358;11.140;2023-06-22T11:52:04;35.50;74.30
11961;DHT22;6040;49.358;11.140;2023-06-22T11:54:31;35.70;73.50
11961;DHT22;6040;49.358;11.140;2023-06-22T11:56:59;35.40;73.00
11961;DHT22;6040;49.358;11.140;2023-06-22T11:59:25;35.60;74.30
11961;DHT22;6040;49.358;11.140;2023-06-22T12:01:52;35.70;74.20
11961;DHT22;6040;49.358;11.140;2023-06-22T12:04:20;35.60;70.30
11961;DHT22;6040;49.358;11.140;2023-06-22T12:06:47;35.20;71.70
11961;DHT22;6040;49.358;11.140;2023-06-22T12:09:14;34.80;71.40
11961;DHT22;6040;49.358;11.140;2023-06-22T12:11:41;34.90;72.90
11961;DHT22;6040;49.358;11.140;2023-06-22T12:14:07;35.00;72.60
11961;DHT22;6040;49.358;11.140;2023-06-22T12:16:34;35.10;71.60
11961;DHT22;6040;49.358;11.140;2023-06-22T12:19:01;35.00;71.60
11961;DHT22;6040;49.358;11.140;2023-06-22T12:21:29;34.90;72.50
11961;DHT22;6040;49.358;11.140;2023-06-22T12:23:56;35.00;71.90
11961;DHT22;6040;49.358;11.140;2023-06-22T12:26:23;35.20;69.80
11961;DHT22;6040;49.358;11.140;2023-06-22T12:28:50;35.60;70.00
11961;DHT22;6040;49.358;11.140;2023-06-22T12:31:17;35.80;70.20
11961;DHT22;6040;49.358;11.140;2023-06-22T12:33:44;35.50;70.00
11961;DHT22;6040;49.358;11.140;2023-06-22T12:36:10;35.10;70.40
11961;DHT22;6040;49.358;11.140;2023-06-22T12:38:39;35.00;70.80
11961;DHT22;6040;49.358;11.140;2023-06-22T12:41:05;35.10;70.60
11961;DHT22;6040;49.358;11.140;2023-06-22T12:43:32;35.20;71.60
11961;DHT22;6040;49.358;11.140;2023-06-22T12:45:59;35.40;73.90
11961;DHT22;6040;49.358;11.140;2023-06-22T12:48:26;35.40;72.50
11961;DHT22;6040;49.358;11.140;2023-06-22T12:50:53;35.30;74.80
11961;DHT22;6040;49.358;11.140;2023-06-22T12:53:20;35.40;71.00
11961;DHT22;6040;49.358;11.140;2023-06-22T12:55:49;35.30;70.40
11961;DHT22;6040;49.358;11.140;2023-06-22T12:58:16;35.20;73.40
11961;DHT22;6040;49.358;11.140;2023-06-22T13:00:43;35.10;74.10
11961;DHT22;6040;49.358;11.140;2023-06-22T13:03:10;35.30;73.70
11961;DHT22;6040;49.358;11.140;2023-06-22T13:05:37;35.40;74.90
11961;DHT22;6040;49.358;11.140;2023-06-22T13:08:04;35.40;73.00
11961;DHT22;6040;49.358;11.140;2023-06-22T13:10:31;35.40;72.50
11961;DHT22;6040;49.358;11.140;2023-06-22T13:12:59;35.20;74.60
11961;DHT22;6040;49.358;11.140;2023-06-22T13:15:27;35.40;74.40
11961;DHT22;6040;49.358;11.140;2023-06-22T13:17:54;35.50;74.20
11961;DHT22;6040;49.358;11.140;2023-06-22T13:20:21;35.50;73.50
11961;DHT22;6040;49.358;11.140;2023-06-22T13:22:48;35.30;73.80
11961;DHT22;6040;49.358;11.140;2023-06-22T13:25:15;35.10;72.80
11961;DHT22;6040;49.358;11.140;2023-06-22T13:27:44;35.00;73.70
11961;DHT22;6040;49.358;11.140;2023-06-22T13:30:13;34.60;75.70
11961;DHT22;6040;49.358;11.140;2023-06-22T13:32:39;34.70;74.30
11961;DHT22;6040;49.358;11.140;2023-06-22T13:35:08;34.70;76.20
11961;DHT22;6040;49.358;11.140;2023-06-22T13:37:35;35.00;76.70
11961;DHT22;6040;49.358;11.140;2023-06-22T13:40:02;35.20;71.90
11961;DHT22;6040;49.358;11.140;2023-06-22T13:42:31;35.20;68.30
11961;DHT22;6040;49.358;11.140;2023-06-22T13:44:57;35.00;68.00
11961;DHT22;6040;49.358;11.140;2023-06-22T13:47:26;34.70;70.60
11961;DHT22;6040;49.358;11.140;2023-06-22T13:49:52;34.70;72.60
11961;DHT22;6040;49.358;11.140;2023-06-22T13:52:19;34.70;69.70
11961;DHT22;6040;49.358;11.140;2023-06-22T13:54:46;34.70;71.60
11961;DHT22;6040;49.358;11.140;2023-06-22T13:57:13;34.80;69.50
11961;DHT22;6040;49.358;11.140;2023-06-22T13:59:39;34.90;69.70
11961;DHT22;6040;49.358;11.140;2023-06-22T14:02:06;34.90;69.40
11961;DHT22;6040;49.358;11.140;2023-06-22T14:04:34;34.90;70.30
11961;DHT22;6040;49.358;11.140;2023-06-22T14:07:01;34.90;70.70
11961;DHT22;6040;49.358;11.140;2023-06-22T14:09:28;35.00;71.40
11961;DHT22;6040;49.358;11.140;2023-06-22T14:11:55;35.00;72.20
11961;DHT22;6040;49.358;11.140;2023-06-22T14:14:22;35.20;71.40
11961;DHT22;6040;49.358;11.140;2023-06-22T14:16:49;35.30;68.80
11961;DHT22;6040;49.358;11.140;2023-06-22T14:19:17;35.30;68.20
11961;DHT22;6040;49.358;11.140;2023-06-22T14:21:46;35.10;69.10
11961;DHT22;6040;49.358;11.140;2023-06-22T14:24:12;35.00;71.10
11961;DHT22;6040;49.358;11.140;2023-06-22T14:26:39;35.00;70.00
11961;DHT22;6040;49.358;11.140;2023-06-22T14:29:06;34.70;69.70
11961;DHT22;6040;49.358;11.140;2023-06-22T14:31:33;34.50;69.80
11961;DHT22;6040;49.358;11.140;2023-06-22T14:34:00;34.50;70.00
11961;DHT22;6040;49.358;11.140;2023-06-22T14:36:28;34.50;71.80
11961;DHT22;6040;49.358;11.140;2023-06-22T14:38:56;34.50;72.40
11961;DHT22;6040;49.358;11.140;2023-06-22T14:41:23;34.50;71.30
11961;DHT22;6040;49.358;11.140;2023-06-22T14:43:50;34.50;72.00
11961;DHT22;6040;49.358;11.140;2023-06-22T14:46:18;34.60;70.20
11961;DHT22;6040;49.358;11.140;2023-06-22T14:48:45;34.50;70.20
11961;DHT22;6040;49.358;11.140;2023-06-22T14:51:12;34.50;68.80
11961;DHT22;6040;49.358;11.140;2023-06-22T14:53:39;34.60;70.00
11961;DHT22;6040;49.358;11.140;2023-06-22T14:56:07;34.60;70.90
11961;DHT22;6040;49.358;11.140;2023-06-22T14:58:34;34.60;69.00
11961;DHT22;6040;49.358;11.140;2023-06-22T15:01:01;34.60;70.30
11961;DHT22;6040;49.358;11.140;2023-06-22T15:03:30;34.70;70.90
11961;DHT22;6040;49.358;11.140;2023-06-22T15:05:57;35.00;70.80
11961;DHT22;6040;49.358;11.140;2023-06-22T15:08:25;35.20;67.90
11961;DHT22;6040;49.358;11.140;2023-06-22T15:10:52;35.10;68.40
11961;DHT22;6040;49.358;11.140;2023-06-22T15:13:21;35.20;69.30
11961;DHT22;6040;49.358;11.140;2023-06-22T15:15:48;35.30;68.50
11961;DHT22;6040;49.358;11.140;2023-06-22T15:18:15;35.10;66.90
11961;DHT22;6040;49.358;11.140;2023-06-22T15:20:43;34.90;68.20
11961;DHT22;6040;49.358;11.140;2023-06-22T15:23:11;34.80;69.00
11961;DHT22;6040;49.358;11.140;2023-06-22T15:25:38;34.50;68.70
11961;DHT22;6040;49.358;11.140;2023-06-22T15:28:05;34.40;70.90
11961;DHT22;6040;49.358;11.140;2023-06-22T15:30:33;34.40;69.40